createdAt,value
2018-05-05T00:02:09.134Z,54.09
2018-05-05T00:04:37.458Z,54.79
2018-05-05T00:07:07.328Z,55.13
2018-05-05T00:09:35.629Z,55.17
2018-05-05T00:12:03.986Z,55.89
2018-05-05T00:14:37.829Z,55.81
2018-05-05T00:17:07.072Z,54.94
2018-05-05T00:19:37.003Z,55.20
2018-05-05T00:22:05.495Z,55.63
2018-05-05T00:24:33.939Z,55.58
2018-05-05T00:27:02.447Z,55.36
2018-05-05T00:29:30.971Z,55.52
2018-05-05T00:31:59.460Z,55.74
2018-05-05T00:34:28.292Z,56.65
2018-05-05T00:36:59.889Z,57.12
2018-05-05T00:39:28.393Z,57.37
2018-05-05T00:41:56.684Z,57.61
2018-05-05T00:44:28.130Z,57.67
2018-05-05T00:46:56.425Z,58.29
2018-05-05T00:49:24.711Z,58.22
2018-05-05T00:51:53.235Z,57.87
2018-05-05T00:54:39.110Z,58.36
2018-05-05T00:57:07.448Z,59.23
2018-05-05T00:59:35.723Z,60.01
2018-05-05T01:02:04.897Z,60.66
2018-05-05T01:04:33.171Z,60.69
2018-05-05T01:07:02.017Z,59.96
2018-05-05T01:09:30.354Z,59.73
2018-05-05T01:11:58.635Z,59.90
2018-05-05T01:14:26.929Z,61.00
2018-05-05T01:16:55.267Z,61.44
2018-05-05T01:19:23.561Z,62.57
2018-05-05T01:21:51.846Z,63.12
2018-05-05T01:24:20.358Z,62.85
2018-05-05T01:26:48.903Z,62.74
2018-05-05T01:29:17.184Z,62.51
2018-05-05T01:31:45.497Z,61.86
2018-05-05T01:34:13.780Z,61.54
2018-05-05T01:36:42.458Z,63.15
2018-05-05T01:39:11.332Z,62.24
2018-05-05T01:41:39.610Z,62.66
2018-05-05T01:44:07.895Z,62.57
2018-05-05T01:46:36.206Z,63.04
2018-05-05T01:49:04.484Z,61.56
2018-05-05T01:51:32.927Z,61.40
2018-05-05T01:54:01.242Z,64.10
2018-05-05T01:56:29.534Z,63.91
2018-05-05T01:58:58.580Z,63.35
2018-05-05T02:01:26.907Z,64.61
2018-05-05T02:03:55.147Z,64.84
2018-05-05T02:06:23.428Z,62.52
2018-05-05T02:08:51.762Z,63.07
2018-05-05T02:11:20.048Z,64.23
2018-05-05T02:13:48.335Z,64.63
2018-05-05T02:16:16.659Z,65.00
2018-05-05T02:18:46.102Z,65.78
2018-05-05T02:21:14.556Z,65.72
2018-05-05T02:23:42.934Z,65.61
2018-05-05T02:26:11.670Z,66.56
2018-05-05T02:28:40.138Z,64.20
2018-05-05T02:31:08.446Z,65.47
2018-05-05T02:33:36.864Z,64.20
2018-05-05T02:36:05.222Z,63.44
2018-05-05T02:38:34.259Z,63.31
2018-05-05T02:41:02.620Z,64.14
2018-05-05T02:43:32.861Z,65.07
2018-05-05T02:46:01.195Z,64.19
2018-05-05T02:48:29.534Z,64.59
2018-05-05T02:50:58.014Z,65.33
2018-05-05T02:53:26.530Z,65.49
2018-05-05T02:55:56.144Z,65.63
2018-05-05T02:58:24.431Z,66.08
2018-05-05T03:00:52.786Z,67.00
2018-05-05T03:03:21.762Z,66.06
2018-05-05T03:05:50.057Z,66.47
2018-05-05T03:08:18.372Z,67.85
2018-05-05T03:10:46.658Z,66.87
2018-05-05T03:13:14.958Z,68.49
2018-05-05T03:15:43.270Z,67.41
2018-05-05T03:18:11.548Z,66.66
2018-05-05T03:20:40.642Z,68.12
2018-05-05T03:23:08.931Z,67.39
2018-05-05T03:25:37.975Z,65.62
2018-05-05T03:28:06.315Z,67.19
2018-05-05T03:30:34.608Z,66.04
2018-05-05T03:33:02.894Z,66.54
2018-05-05T03:35:31.233Z,66.77
2018-05-05T03:37:59.506Z,65.84
2018-05-05T03:40:27.794Z,66.75
2018-05-05T03:42:56.116Z,67.30
2018-05-05T03:45:24.768Z,68.52
2018-05-05T03:47:54.266Z,68.12
2018-05-05T03:50:23.067Z,66.94
2018-05-05T03:52:51.403Z,66.45
2018-05-05T03:55:19.691Z,66.60
2018-05-05T03:57:48.023Z,68.83
2018-05-05T04:00:34.434Z,68.21
2018-05-05T04:03:20.174Z,68.49
2018-05-05T04:05:48.507Z,68.63
2018-05-05T04:08:16.794Z,70.56
2018-05-05T04:10:45.661Z,68.56
2018-05-05T04:13:14.501Z,69.58
2018-05-05T04:15:42.831Z,67.95
2018-05-05T04:18:11.418Z,68.22
2018-05-05T04:20:39.697Z,68.50
2018-05-05T04:23:07.978Z,68.39
2018-05-05T04:25:36.315Z,68.46
2018-05-05T04:28:04.612Z,68.18
2018-05-05T04:30:32.907Z,67.93
2018-05-05T04:33:01.263Z,67.34
2018-05-05T04:35:29.545Z,66.92
2018-05-05T04:37:57.830Z,66.54
2018-05-05T04:40:26.618Z,65.14
2018-05-05T04:42:55.786Z,64.51
2018-05-05T04:45:24.076Z,65.24
2018-05-05T04:47:53.394Z,62.32
2018-05-05T04:50:21.678Z,62.02
2018-05-05T04:52:49.965Z,61.50
2018-05-05T04:55:18.315Z,60.54
2018-05-05T04:57:46.593Z,59.83
2018-05-05T05:00:14.876Z,59.60
2018-05-05T05:02:43.191Z,60.03
2018-05-05T05:05:11.522Z,60.54
2018-05-05T05:07:41.126Z,60.51
2018-05-05T05:10:09.496Z,59.04
2018-05-05T05:12:37.774Z,59.21
2018-05-05T05:15:06.059Z,58.81
2018-05-05T05:17:34.954Z,59.05
2018-05-05T05:20:03.239Z,60.39
2018-05-05T05:22:31.628Z,60.46
2018-05-05T05:24:59.951Z,59.84
2018-05-05T05:27:29.001Z,59.88
2018-05-05T05:29:57.282Z,59.89
2018-05-05T05:32:25.613Z,59.95
2018-05-05T05:34:53.902Z,59.03
2018-05-05T05:37:22.191Z,58.89
2018-05-05T05:39:50.513Z,58.63
2018-05-05T05:42:18.803Z,57.09
2018-05-05T05:44:47.086Z,58.03
2018-05-05T05:47:15.397Z,58.83
2018-05-05T05:49:43.684Z,57.65
2018-05-05T05:52:12.029Z,57.08
2018-05-05T05:54:41.078Z,56.74
2018-05-05T05:57:09.356Z,57.09
2018-05-05T05:59:37.663Z,57.01
2018-05-05T06:02:06.703Z,57.00
2018-05-05T06:04:34.986Z,56.12
2018-05-05T06:07:03.298Z,57.18
2018-05-05T06:09:31.582Z,57.64
2018-05-05T06:11:59.927Z,56.88
2018-05-05T06:14:28.211Z,56.47
2018-05-05T06:16:56.491Z,55.87
2018-05-05T06:19:24.822Z,55.60
2018-05-05T06:21:53.122Z,54.12
2018-05-05T06:24:21.396Z,54.99
2018-05-05T06:26:49.735Z,53.33
2018-05-05T06:29:18.775Z,52.57
2018-05-05T06:31:47.056Z,51.22
2018-05-05T06:34:15.382Z,51.85
2018-05-05T06:36:44.471Z,52.17
2018-05-05T06:39:13.523Z,51.71
2018-05-05T06:41:41.850Z,49.28
2018-05-05T06:44:10.901Z,48.34
2018-05-05T06:46:39.179Z,47.37
2018-05-05T06:49:07.516Z,45.37
2018-05-05T06:51:35.811Z,45.41
2018-05-05T06:54:04.121Z,44.40
2018-05-05T06:56:32.441Z,44.20
2018-05-05T06:59:00.715Z,42.75
2018-05-05T07:01:28.998Z,41.43
2018-05-05T07:03:57.344Z,41.64
2018-05-05T07:06:25.710Z,42.27
2018-05-05T07:08:54.730Z,41.81
2018-05-05T07:11:23.169Z,41.98
2018-05-05T07:13:51.466Z,42.53
2018-05-05T07:16:19.762Z,40.60
2018-05-05T07:18:48.138Z,41.51
2018-05-05T07:21:16.426Z,41.26
2018-05-05T07:23:44.714Z,41.37
2018-05-05T07:26:13.031Z,40.75
2018-05-05T07:28:41.320Z,40.79
2018-05-05T07:31:09.595Z,39.61
2018-05-05T07:33:37.927Z,37.77
2018-05-05T07:36:06.206Z,36.70
2018-05-05T07:38:34.486Z,36.05
2018-05-05T07:41:03.579Z,36.49
2018-05-05T07:43:32.623Z,35.69
2018-05-05T07:46:01.425Z,35.17
2018-05-05T07:48:29.767Z,35.67
2018-05-05T07:50:58.053Z,34.86
2018-05-05T07:53:26.330Z,34.11
2018-05-05T07:55:54.438Z,33.17
2018-05-05T07:58:22.723Z,31.32
2018-05-05T08:00:51.501Z,32.12
2018-05-05T08:03:20.174Z,34.08
2018-05-05T08:05:48.458Z,31.55
2018-05-05T08:08:16.799Z,28.86
2018-05-05T08:10:45.083Z,30.13
2018-05-05T08:13:13.390Z,31.89
2018-05-05T08:15:41.702Z,31.06
2018-05-05T08:18:10.754Z,30.33
2018-05-05T08:20:39.039Z,29.01
2018-05-05T08:23:07.354Z,28.63
2018-05-05T08:25:35.631Z,28.88
2018-05-05T08:28:03.906Z,29.56
2018-05-05T08:30:32.241Z,31.58
2018-05-05T08:33:00.526Z,29.45
2018-05-05T08:35:28.803Z,28.07
2018-05-05T08:37:57.910Z,29.40
2018-05-05T08:40:30.636Z,31.86
2018-05-05T08:43:05.028Z,29.86
2018-05-05T08:45:33.376Z,30.00
2018-05-05T08:48:01.739Z,30.87
2018-05-05T08:50:30.028Z,31.58
2018-05-05T08:52:58.314Z,28.24
2018-05-05T08:55:26.636Z,28.79
2018-05-05T08:57:54.919Z,27.34
2018-05-05T09:00:23.196Z,27.53
2018-05-05T09:02:51.520Z,30.66
2018-05-05T09:05:19.812Z,30.38
2018-05-05T09:07:48.107Z,29.71
2018-05-05T09:10:16.430Z,29.40
2018-05-05T09:12:44.718Z,28.26
2018-05-05T09:15:13.003Z,26.52
2018-05-05T09:17:41.333Z,25.57
2018-05-05T09:20:09.611Z,27.82
2018-05-05T09:22:37.886Z,28.31
2018-05-05T09:25:06.187Z,30.44
2018-05-05T09:27:34.470Z,30.80
2018-05-05T09:30:02.822Z,29.49
2018-05-05T09:32:31.170Z,26.67
2018-05-05T09:35:00.219Z,26.07
2018-05-05T09:37:28.515Z,27.82
2018-05-05T09:39:56.839Z,28.17
2018-05-05T09:42:25.133Z,28.91
2018-05-05T09:44:53.436Z,28.70
2018-05-05T09:47:21.780Z,27.10
2018-05-05T09:49:50.077Z,29.97
2018-05-05T09:52:18.367Z,28.96
2018-05-05T09:54:46.694Z,26.84
2018-05-05T09:57:15.752Z,26.53
2018-05-05T09:59:44.035Z,28.36
2018-05-05T10:02:12.346Z,28.12
2018-05-05T10:04:40.667Z,29.12
2018-05-05T10:07:08.949Z,26.45
2018-05-05T10:09:37.283Z,26.32
2018-05-05T10:12:05.578Z,28.29
2018-05-05T10:14:33.863Z,30.24
2018-05-05T10:17:02.195Z,31.64
2018-05-05T10:19:31.253Z,26.94
2018-05-05T10:21:59.538Z,25.62
2018-05-05T10:24:28.019Z,26.59
2018-05-05T10:26:56.304Z,28.00
2018-05-05T10:29:24.591Z,24.66
2018-05-05T10:31:53.176Z,27.46
2018-05-05T10:34:21.422Z,24.38
2018-05-05T10:36:49.710Z,25.46
2018-05-05T10:39:18.075Z,26.58
2018-05-05T10:41:46.342Z,23.40
2018-05-05T10:44:14.623Z,24.98
2018-05-05T10:46:42.947Z,26.76
2018-05-05T10:49:12.003Z,25.86
2018-05-05T10:51:40.379Z,25.74
2018-05-05T10:54:08.717Z,26.38
2018-05-05T10:56:37.020Z,28.73
2018-05-05T10:59:05.310Z,26.16
2018-05-05T11:01:33.739Z,25.67
2018-05-05T11:04:01.951Z,22.92
2018-05-05T11:06:30.398Z,22.36
2018-05-05T11:08:59.490Z,23.30
2018-05-05T11:11:28.534Z,25.14
2018-05-05T11:13:56.817Z,26.07
2018-05-05T11:16:25.127Z,23.03
2018-05-05T11:18:54.183Z,24.04
2018-05-05T11:21:22.490Z,25.70
2018-05-05T11:23:50.849Z,26.63
2018-05-05T11:26:19.107Z,24.37
2018-05-05T11:28:47.810Z,23.02
2018-05-05T11:31:16.110Z,23.57
2018-05-05T11:33:44.940Z,27.04
2018-05-05T11:36:13.279Z,25.53
2018-05-05T11:38:41.562Z,26.53
2018-05-05T11:41:10.604Z,25.71
2018-05-05T11:43:39.282Z,27.13
2018-05-05T11:46:07.579Z,25.87
2018-05-05T11:48:36.239Z,24.85
2018-05-05T11:51:04.546Z,24.45
2018-05-05T11:53:32.842Z,23.60
2018-05-05T11:56:01.228Z,28.62
2018-05-05T11:58:29.786Z,26.93
2018-05-05T12:00:58.912Z,25.87
2018-05-05T12:03:27.212Z,25.76
2018-05-05T12:05:56.023Z,26.42
2018-05-05T12:08:24.323Z,26.50
2018-05-05T12:10:52.606Z,26.73
2018-05-05T12:13:20.937Z,25.69
2018-05-05T12:15:50.386Z,25.14
2018-05-05T12:18:19.287Z,24.52
2018-05-05T12:20:47.483Z,23.96
2018-05-05T12:23:15.760Z,23.55
2018-05-05T12:25:43.966Z,22.87
2018-05-05T12:28:12.303Z,22.47
2018-05-05T12:30:40.779Z,22.59
2018-05-05T12:33:09.362Z,25.57
2018-05-05T12:35:37.706Z,22.99
2018-05-05T12:38:05.982Z,24.05
2018-05-05T12:40:34.314Z,26.38
2018-05-05T12:43:02.646Z,23.58
2018-05-05T12:45:30.930Z,23.76
2018-05-05T12:47:59.655Z,24.44
2018-05-05T12:50:28.735Z,25.46
2018-05-05T12:52:57.023Z,26.57
2018-05-05T12:55:25.418Z,25.11
2018-05-05T12:57:54.515Z,24.33
2018-05-05T13:00:23.639Z,23.87
2018-05-05T13:02:52.167Z,24.38
2018-05-05T13:05:20.475Z,24.22
2018-05-05T13:07:48.842Z,24.50
2018-05-05T13:10:17.117Z,25.29
2018-05-05T13:12:45.438Z,24.05
2018-05-05T13:15:13.751Z,24.96
2018-05-05T13:17:42.626Z,26.19
2018-05-05T13:20:11.184Z,26.58
2018-05-05T13:22:39.466Z,28.06
2018-05-05T13:25:07.923Z,25.87
2018-05-05T13:27:36.259Z,25.21
2018-05-05T13:30:04.541Z,24.00
2018-05-05T13:32:32.831Z,22.43
2018-05-05T13:35:01.163Z,24.38
2018-05-05T13:37:29.447Z,23.07
2018-05-05T13:39:57.726Z,24.34
2018-05-05T13:42:26.031Z,23.65
2018-05-05T13:44:54.319Z,23.48
2018-05-05T13:47:22.599Z,22.40
2018-05-05T13:49:51.075Z,22.95
2018-05-05T13:52:19.355Z,23.58
2018-05-05T13:54:47.641Z,23.76
2018-05-05T13:57:15.779Z,23.39
2018-05-05T13:59:44.103Z,25.04
2018-05-05T14:02:13.146Z,23.87
2018-05-05T14:04:41.506Z,22.59
2018-05-05T14:07:09.830Z,24.07
2018-05-05T14:09:38.182Z,21.93
2018-05-05T14:12:06.463Z,22.58
2018-05-05T14:14:35.187Z,23.44
2018-05-05T14:17:04.229Z,25.98
2018-05-05T14:19:32.505Z,26.98
2018-05-05T14:22:00.843Z,26.43
2018-05-05T14:24:29.890Z,24.87
2018-05-05T14:26:58.182Z,25.77
2018-05-05T14:29:26.510Z,26.73
2018-05-05T14:31:54.795Z,24.44
2018-05-05T14:34:23.074Z,24.29
2018-05-05T14:36:51.399Z,23.67
2018-05-05T14:39:19.682Z,24.64
2018-05-05T14:41:47.964Z,24.54
2018-05-05T14:44:16.305Z,25.19
2018-05-05T14:46:44.578Z,23.85
2018-05-05T14:49:12.852Z,23.98
2018-05-05T14:51:41.185Z,24.16
2018-05-05T14:54:10.232Z,24.62
2018-05-05T14:56:38.510Z,24.62
2018-05-05T14:59:06.834Z,23.77
2018-05-05T15:01:35.878Z,24.93
2018-05-05T15:04:04.156Z,26.13
2018-05-05T15:06:32.456Z,28.15
2018-05-05T15:09:00.815Z,31.34
2018-05-05T15:11:29.087Z,33.10
2018-05-05T15:13:57.371Z,31.91
2018-05-05T15:16:25.975Z,30.52
2018-05-05T15:18:54.330Z,30.40
2018-05-05T15:21:22.618Z,32.52
2018-05-05T15:23:50.962Z,32.83
2018-05-05T15:26:19.371Z,30.13
2018-05-05T15:28:47.845Z,30.71
2018-05-05T15:31:16.174Z,32.12
2018-05-05T15:33:44.566Z,31.60
2018-05-05T15:36:12.847Z,30.53
2018-05-05T15:38:41.123Z,28.35
2018-05-05T15:41:10.047Z,27.84
2018-05-05T15:43:38.330Z,30.37
2018-05-05T15:46:06.612Z,31.47
2018-05-05T15:48:34.822Z,32.44
2018-05-05T15:51:03.325Z,32.50
2018-05-05T15:53:32.256Z,30.72
2018-05-05T15:56:00.597Z,30.33
2018-05-05T15:58:28.884Z,30.84
2018-05-05T16:00:57.434Z,30.51
2018-05-05T16:03:26.515Z,31.97
2018-05-05T16:05:54.792Z,31.67
2018-05-05T16:08:23.067Z,30.55
2018-05-05T16:10:51.379Z,29.45
2018-05-05T16:13:20.215Z,30.44
2018-05-05T16:15:48.637Z,29.71
2018-05-05T16:18:17.334Z,29.73
2018-05-05T16:20:45.834Z,29.38
2018-05-05T16:23:14.177Z,30.00
2018-05-05T16:25:42.520Z,30.14
2018-05-05T16:28:10.872Z,30.31
2018-05-05T16:30:39.458Z,29.89
2018-05-05T16:33:07.802Z,30.18
2018-05-05T16:35:36.083Z,31.00
2018-05-05T16:38:04.377Z,31.25
2018-05-05T16:40:32.718Z,32.57
2018-05-05T16:43:01.012Z,33.19
2018-05-05T16:45:29.639Z,33.49
2018-05-05T16:47:58.647Z,33.75
2018-05-05T16:50:27.734Z,33.63
2018-05-05T16:52:56.245Z,33.24
2018-05-05T16:55:25.187Z,32.98
2018-05-05T16:57:53.607Z,32.77
2018-05-05T17:00:21.891Z,32.78
2018-05-05T17:02:50.262Z,33.12
2018-05-05T17:05:19.039Z,33.57
2018-05-05T17:07:48.025Z,33.91
2018-05-05T17:10:17.229Z,33.34
2018-05-05T17:12:45.546Z,33.84
2018-05-05T17:15:13.839Z,33.19
2018-05-05T17:17:42.242Z,33.54
2018-05-05T17:20:10.927Z,33.56
2018-05-05T17:22:39.220Z,34.22
2018-05-05T17:25:07.547Z,34.17
2018-05-05T17:27:35.845Z,34.67
2018-05-05T17:30:04.268Z,34.47
2018-05-05T17:32:32.605Z,34.62
2018-05-05T17:35:01.080Z,34.92
2018-05-05T17:37:29.314Z,35.63
2018-05-05T17:39:57.818Z,34.96
2018-05-05T17:42:26.111Z,34.88
2018-05-05T17:44:55.159Z,35.24
2018-05-05T17:47:24.195Z,35.82
2018-05-05T17:49:53.303Z,36.83
2018-05-05T17:52:21.290Z,36.18
2018-05-05T17:54:50.307Z,36.72
2018-05-05T17:57:18.599Z,37.27
2018-05-05T17:59:46.878Z,37.48
2018-05-05T18:15:05.130Z,39.61
2018-05-05T18:17:34.175Z,40.21
2018-05-05T18:20:03.186Z,40.82
2018-05-05T18:22:32.329Z,41.58
2018-05-05T18:25:00.848Z,41.50
2018-05-05T18:27:29.133Z,41.62
2018-05-05T18:29:57.939Z,41.90
2018-05-05T18:32:27.096Z,42.20
2018-05-05T18:34:55.811Z,42.71
2018-05-05T18:37:24.737Z,42.94
2018-05-05T18:39:53.531Z,43.35
2018-05-05T18:42:22.719Z,43.71
2018-05-05T18:44:51.034Z,43.50
2018-05-05T18:47:19.339Z,43.73
2018-05-05T18:49:47.670Z,44.20
2018-05-05T18:52:16.714Z,45.32
2018-05-05T18:54:45.003Z,45.47
2018-05-05T18:57:13.335Z,45.29
2018-05-05T18:59:42.287Z,45.64
2018-05-05T19:02:12.375Z,46.30
2018-05-05T19:04:41.498Z,46.45
2018-05-05T19:07:10.099Z,46.50
2018-05-05T19:09:38.784Z,45.77
2018-05-05T19:12:07.113Z,46.56
2018-05-05T19:14:35.399Z,47.11
2018-05-05T19:17:03.746Z,47.59
2018-05-05T19:19:32.964Z,48.33
2018-05-05T19:22:01.247Z,48.32
2018-05-05T19:24:30.162Z,49.35
2018-05-05T19:26:58.506Z,49.42
2018-05-05T19:29:27.558Z,49.18
2018-05-05T19:31:55.883Z,49.24
2018-05-05T19:34:24.163Z,51.02
2018-05-05T19:36:52.767Z,51.51
2018-05-05T19:39:21.570Z,51.67
2018-05-05T19:41:49.880Z,52.77
2018-05-05T19:44:18.158Z,52.05
2018-05-05T19:46:46.534Z,52.36
2018-05-05T19:49:14.779Z,52.51
2018-05-05T19:51:43.070Z,52.41
2018-05-05T19:54:12.238Z,52.55
2018-05-05T19:56:40.488Z,52.17
2018-05-05T19:59:08.795Z,53.11
2018-05-05T20:01:37.487Z,53.46
2018-05-05T20:04:05.826Z,53.31
2018-05-05T20:06:34.135Z,53.39
2018-05-05T20:09:02.423Z,53.99
2018-05-05T20:11:31.204Z,54.60
2018-05-05T20:13:59.490Z,55.06
2018-05-05T20:16:28.335Z,55.35
2018-05-05T20:18:56.642Z,55.48
2018-05-05T20:21:24.933Z,55.94
2018-05-05T20:23:53.467Z,56.82
2018-05-05T20:26:21.823Z,56.32
2018-05-05T20:28:50.871Z,57.74
2018-05-05T20:31:19.163Z,58.36
2018-05-05T20:33:47.528Z,58.39
2018-05-05T20:36:16.892Z,58.61
2018-05-05T20:38:45.406Z,59.33
2018-05-05T20:41:13.795Z,58.81
2018-05-05T20:43:42.229Z,59.99
2018-05-05T20:46:10.518Z,58.66
2018-05-05T20:48:38.907Z,58.30
2018-05-05T20:51:07.191Z,57.99
2018-05-05T20:53:35.517Z,58.05
2018-05-05T20:56:04.570Z,58.93
2018-05-05T20:58:33.826Z,58.13
2018-05-05T21:01:03.293Z,58.12
2018-05-05T21:03:32.915Z,58.99
2018-05-05T21:06:01.370Z,59.59
2018-05-05T21:08:30.440Z,57.32
2018-05-05T21:10:59.117Z,59.04
2018-05-05T21:13:27.474Z,59.28
2018-05-05T21:15:57.144Z,58.78
2018-05-05T21:18:25.482Z,58.69
2018-05-05T21:20:53.900Z,60.80
2018-05-05T21:23:22.207Z,60.17
2018-05-05T21:25:51.254Z,60.86
2018-05-05T21:28:19.574Z,62.59
2018-05-05T21:30:47.867Z,62.55
2018-05-05T21:33:16.880Z,62.11
2018-05-05T21:35:45.302Z,63.37
2018-05-05T21:38:15.598Z,62.62
2018-05-05T21:40:47.636Z,64.03
2018-05-05T21:43:16.007Z,63.12
2018-05-05T21:45:44.784Z,62.32
2018-05-05T21:48:13.135Z,62.30
2018-05-05T21:50:41.646Z,62.85
2018-05-05T21:53:10.430Z,63.04
2018-05-05T21:55:38.739Z,61.97
2018-05-05T21:58:07.081Z,63.18
2018-05-05T22:00:35.562Z,62.19
2018-05-05T22:03:03.868Z,61.28
2018-05-05T22:05:32.933Z,60.88
2018-05-05T22:08:01.258Z,61.77
2018-05-05T22:10:29.534Z,61.50
2018-05-05T22:12:57.814Z,61.32
2018-05-05T22:15:26.134Z,60.45
2018-05-05T22:17:54.424Z,60.70
2018-05-05T22:20:22.793Z,61.29
2018-05-05T22:22:51.717Z,61.43
2018-05-05T22:25:20.467Z,61.54
2018-05-05T22:27:49.080Z,61.97
2018-05-05T22:30:18.191Z,63.45
2018-05-05T22:32:47.067Z,63.45
2018-05-05T22:35:15.534Z,63.47
2018-05-05T22:37:44.022Z,62.76
2018-05-05T22:40:12.834Z,63.85
2018-05-05T22:42:42.005Z,64.14
2018-05-05T22:45:10.291Z,63.07
2018-05-05T22:47:38.572Z,62.84
2018-05-05T22:50:08.155Z,63.16
2018-05-05T22:52:36.442Z,63.48
2018-05-05T22:55:04.718Z,63.41
2018-05-05T22:57:33.042Z,62.62
2018-05-05T23:00:01.359Z,62.77
2018-05-05T23:02:29.672Z,62.46
2018-05-05T23:04:58.774Z,60.66
2018-05-05T23:07:27.058Z,61.20
2018-05-05T23:09:55.338Z,61.54
2018-05-05T23:12:23.671Z,61.79
2018-05-05T23:14:51.953Z,62.48
2018-05-05T23:17:20.247Z,63.23
2018-05-05T23:19:48.614Z,62.74
2018-05-05T23:22:16.943Z,64.12
2018-05-05T23:24:45.338Z,64.86
2018-05-05T23:27:13.642Z,66.44
2018-05-05T23:29:41.923Z,65.75
2018-05-05T23:32:10.207Z,66.54
2018-05-05T23:34:38.546Z,66.93
2018-05-05T23:37:06.831Z,67.01
2018-05-05T23:39:35.482Z,67.76
2018-05-05T23:42:03.838Z,67.62
2018-05-05T23:44:32.376Z,67.59
2018-05-05T23:47:01.430Z,67.40
2018-05-05T23:49:29.761Z,66.31
2018-05-05T23:51:58.155Z,66.64
2018-05-05T23:54:26.471Z,67.68
2018-05-05T23:56:55.147Z,66.60
2018-05-05T23:59:23.665Z,66.66
